createdAt,value
2022-10-25T00:00:13.465Z,11.20
2022-10-25T00:03:01.289Z,11.20
2022-10-25T00:05:29.170Z,11.19
2022-10-25T00:07:57.070Z,11.26
2022-10-25T00:10:25.842Z,11.31
2022-10-25T00:12:54.102Z,11.30
2022-10-25T00:15:22.271Z,11.33
2022-10-25T00:17:50.527Z,11.35
2022-10-25T00:20:19.245Z,11.34
2022-10-25T00:23:04.909Z,11.36
2022-10-25T00:25:32.858Z,11.32
2022-10-25T00:28:00.696Z,11.29
2022-10-25T00:30:28.739Z,11.32
2022-10-25T00:32:57.403Z,11.35
2022-10-25T00:35:25.333Z,11.36
2022-10-25T00:37:53.303Z,11.37
2022-10-25T00:40:21.256Z,11.34
2022-10-25T00:42:49.385Z,11.34
2022-10-25T00:45:20.284Z,11.30
2022-10-25T00:47:52.798Z,11.28
2022-10-25T00:50:34.321Z,11.25
2022-10-25T00:53:14.055Z,11.21
2022-10-25T00:55:46.899Z,11.17
2022-10-25T00:58:20.293Z,11.13
2022-10-25T01:00:48.929Z,11.07
2022-10-25T01:03:19.834Z,11.02
2022-10-25T01:05:49.076Z,10.97
2022-10-25T01:08:19.824Z,10.94
2022-10-25T01:10:48.111Z,10.90
2022-10-25T01:13:16.112Z,10.88
2022-10-25T01:15:59.805Z,10.85
2022-10-25T01:18:43.574Z,10.82
2022-10-25T01:21:39.182Z,10.82
2022-10-25T01:24:32.903Z,10.83
2022-10-25T01:27:15.700Z,10.84
2022-10-25T01:30:07.048Z,10.87
2022-10-25T01:32:50.050Z,10.89
2022-10-25T01:35:27.277Z,10.92
2022-10-25T01:38:29.243Z,10.96
2022-10-25T01:41:00.045Z,11.01
2022-10-25T01:43:39.129Z,11.05
2022-10-25T01:46:26.330Z,11.04
2022-10-25T01:49:01.403Z,11.01
2022-10-25T01:51:29.424Z,10.98
2022-10-25T01:53:57.867Z,10.99
2022-10-25T01:56:34.461Z,10.99
2022-10-25T01:59:09.268Z,10.99
2022-10-25T02:02:29.004Z,10.99
2022-10-25T02:05:36.921Z,10.95
2022-10-25T02:08:29.390Z,10.92
2022-10-25T02:11:11.322Z,10.91
2022-10-25T02:14:26.737Z,10.95
2022-10-25T02:17:00.232Z,11.02
2022-10-25T02:19:33.032Z,11.07
2022-10-25T02:22:03.278Z,11.09
2022-10-25T02:24:32.374Z,11.10
2022-10-25T02:27:02.905Z,11.06
2022-10-25T02:29:34.013Z,11.03
2022-10-25T02:32:06.625Z,11.00
2022-10-25T02:34:34.699Z,11.02
2022-10-25T02:37:02.684Z,11.01
2022-10-25T02:39:31.689Z,10.96
2022-10-25T02:42:03.224Z,10.90
2022-10-25T02:44:31.815Z,10.86
2022-10-25T02:46:59.689Z,10.80
2022-10-25T02:49:27.697Z,10.75
2022-10-25T02:51:55.638Z,10.68
2022-10-25T02:54:23.820Z,10.60
2022-10-25T02:56:52.765Z,10.55
2022-10-25T02:59:21.519Z,10.49
2022-10-25T03:01:49.655Z,10.39
2022-10-25T03:04:17.668Z,10.29
2022-10-25T03:06:45.522Z,10.20
2022-10-25T03:09:13.368Z,10.14
2022-10-25T03:11:41.244Z,10.07
2022-10-25T03:14:09.164Z,10.00
2022-10-25T03:16:37.337Z,9.95
2022-10-25T03:19:10.341Z,9.91
2022-10-25T03:21:42.045Z,9.88
2022-10-25T03:24:10.116Z,9.87
2022-10-25T03:26:38.129Z,9.86
2022-10-25T03:29:06.034Z,9.84
2022-10-25T03:31:34.161Z,9.84
2022-10-25T03:34:02.041Z,9.83
2022-10-25T03:36:30.066Z,9.83
2022-10-25T03:38:58.039Z,9.84
2022-10-25T03:41:26.969Z,9.86
2022-10-25T03:43:55.265Z,9.89
2022-10-25T03:46:24.367Z,9.94
2022-10-25T03:48:52.368Z,10.00
2022-10-25T03:51:20.288Z,10.07
2022-10-25T03:53:48.514Z,10.09
2022-10-25T03:56:16.548Z,10.08
2022-10-25T03:58:44.432Z,10.09
2022-10-25T04:01:12.302Z,10.08
2022-10-25T04:03:41.129Z,10.08
2022-10-25T04:06:13.334Z,10.09
2022-10-25T04:08:42.132Z,10.10
2022-10-25T04:11:10.011Z,10.09
2022-10-25T04:13:37.988Z,10.11
2022-10-25T04:16:07.928Z,10.15
2022-10-25T04:18:35.980Z,10.21
2022-10-25T04:21:04.061Z,10.22
2022-10-25T04:23:35.415Z,10.25
2022-10-25T04:26:03.526Z,10.27
2022-10-25T04:28:31.461Z,10.33
2022-10-25T04:30:59.402Z,10.39
2022-10-25T04:33:27.266Z,10.48
2022-10-25T04:35:56.916Z,10.54
2022-10-25T04:38:24.907Z,10.51
2022-10-25T04:40:57.460Z,10.46
2022-10-25T04:43:27.008Z,10.44
2022-10-25T04:45:55.583Z,10.42
2022-10-25T04:48:23.458Z,10.42
2022-10-25T04:50:51.313Z,10.41
2022-10-25T04:53:19.184Z,10.38
2022-10-25T04:56:01.605Z,10.36
2022-10-25T04:58:31.477Z,10.34
2022-10-25T05:01:05.974Z,10.33
2022-10-25T05:03:34.601Z,10.31
2022-10-25T05:06:42.402Z,10.29
2022-10-25T05:09:11.094Z,10.27
2022-10-25T05:11:38.931Z,10.24
2022-10-25T05:14:06.838Z,10.23
2022-10-25T05:16:36.812Z,10.24
2022-10-25T05:19:05.112Z,10.25
2022-10-25T05:21:32.960Z,10.27
2022-10-25T05:24:02.341Z,10.26
2022-10-25T05:26:31.755Z,10.21
2022-10-25T05:29:00.245Z,10.16
2022-10-25T05:31:30.597Z,10.16
2022-10-25T05:34:00.911Z,10.21
2022-10-25T05:36:29.678Z,10.26
2022-10-25T05:38:59.240Z,10.31
2022-10-25T05:41:29.712Z,10.36
2022-10-25T05:44:00.172Z,10.45
2022-10-25T05:46:28.136Z,10.51
2022-10-25T05:48:59.654Z,10.55
2022-10-25T05:51:35.205Z,10.58
2022-10-25T05:54:10.660Z,10.63
2022-10-25T05:56:40.758Z,10.74
2022-10-25T05:59:14.547Z,10.88
2022-10-25T06:01:47.077Z,10.96
2022-10-25T06:04:17.409Z,11.03
2022-10-25T06:06:47.390Z,11.09
2022-10-25T06:09:15.409Z,11.14
2022-10-25T06:11:43.652Z,11.16
2022-10-25T06:14:11.595Z,11.20
2022-10-25T06:16:39.998Z,11.24
2022-10-25T06:19:08.081Z,11.26
